sensor_id;sensor_type;location;lat;lon;timestamp;pressure;altitude;pressure_sealevel;temperature;humidity
23172;BME280;11754;42.664;23.594;2023-01-25T00:01:14;96554.63;;;3.38;69.18
23172;BME280;11754;42.664;23.594;2023-01-25T00:03:40;96552.97;;;3.37;68.88
23172;BME280;11754;42.664;23.594;2023-01-25T00:06:05;96547.75;;;3.37;68.41
23172;BME280;11754;42.664;23.594;2023-01-25T00:08:31;96551.59;;;3.32;68.71
23172;BME280;11754;42.664;23.594;2023-01-25T00:10:56;96557.25;;;3.24;69.29
23172;BME280;11754;42.664;23.594;2023-01-25T00:13:22;96558.31;;;3.22;68.96
23172;BME280;11754;42.664;23.594;2023-01-25T00:15:47;96548.72;;;3.22;69.27
23172;BME280;11754;42.664;23.594;2023-01-25T00:18:13;96554.94;;;3.20;68.81
23172;BME280;11754;42.664;23.594;2023-01-25T00:20:38;96557.91;;;3.28;69.36
23172;BME280;11754;42.664;23.594;2023-01-25T00:23:03;96550.28;;;3.39;69.19
23172;BME280;11754;42.664;23.594;2023-01-25T00:25:29;96546.09;;;3.36;69.03
23172;BME280;11754;42.664;23.594;2023-01-25T00:27:54;96547.75;;;3.37;68.60
23172;BME280;11754;42.664;23.594;2023-01-25T00:30:20;96550.47;;;3.36;68.45
23172;BME280;11754;42.664;23.594;2023-01-25T00:32:53;96545.44;;;3.33;67.86
23172;BME280;11754;42.664;23.594;2023-01-25T00:35:22;96554.00;;;3.35;68.03
23172;BME280;11754;42.664;23.594;2023-01-25T00:37:47;96546.66;;;3.27;68.05
23172;BME280;11754;42.664;23.594;2023-01-25T00:40:16;96552.63;;;3.29;68.35
23172;BME280;11754;42.664;23.594;2023-01-25T00:42:41;96556.44;;;3.24;67.99
23172;BME280;11754;42.664;23.594;2023-01-25T00:45:09;96557.25;;;3.24;68.40
23172;BME280;11754;42.664;23.594;2023-01-25T00:47:35;96553.16;;;3.34;68.40
23172;BME280;11754;42.664;23.594;2023-01-25T00:50:00;96554.94;;;3.34;68.14
23172;BME280;11754;42.664;23.594;2023-01-25T00:52:26;96554.94;;;3.34;68.03
23172;BME280;11754;42.664;23.594;2023-01-25T00:54:52;96545.81;;;3.27;67.88
23172;BME280;11754;42.664;23.594;2023-01-25T00:57:18;96557.56;;;3.20;68.61
23172;BME280;11754;42.664;23.594;2023-01-25T00:59:43;96553.09;;;3.22;68.80
23172;BME280;11754;42.664;23.594;2023-01-25T01:02:10;96556.44;;;3.24;68.76
23172;BME280;11754;42.664;23.594;2023-01-25T01:04:36;96558.13;;;3.25;68.46
23172;BME280;11754;42.664;23.594;2023-01-25T01:07:01;96554.56;;;3.26;68.53
23172;BME280;11754;42.664;23.594;2023-01-25T01:09:27;96546.94;;;3.23;68.46
23172;BME280;11754;42.664;23.594;2023-01-25T01:11:52;96551.22;;;3.24;68.65
23172;BME280;11754;42.664;23.594;2023-01-25T01:14:18;96544.53;;;3.20;68.30
23172;BME280;11754;42.664;23.594;2023-01-25T01:16:44;96542.09;;;3.17;68.21
23172;BME280;11754;42.664;23.594;2023-01-25T01:19:09;96538.38;;;3.06;68.97
23172;BME280;11754;42.664;23.594;2023-01-25T01:21:35;96538.84;;;3.13;69.20
23172;BME280;11754;42.664;23.594;2023-01-25T01:24:00;96535.97;;;3.18;69.05
23172;BME280;11754;42.664;23.594;2023-01-25T01:26:25;96534.28;;;3.17;68.80
23172;BME280;11754;42.664;23.594;2023-01-25T01:28:51;96541.19;;;3.18;68.87
23172;BME280;11754;42.664;23.594;2023-01-25T01:31:21;96524.25;;;3.10;69.04
23172;BME280;11754;42.664;23.594;2023-01-25T01:33:51;96545.81;;;3.27;68.83
23172;BME280;11754;42.664;23.594;2023-01-25T01:36:19;96526.19;;;3.21;68.17
23172;BME280;11754;42.664;23.594;2023-01-25T01:38:46;96540.59;;;3.27;68.52
23172;BME280;11754;42.664;23.594;2023-01-25T01:41:13;96544.59;;;3.32;68.62
23172;BME280;11754;42.664;23.594;2023-01-25T01:43:38;96538.75;;;3.29;68.63
23172;BME280;11754;42.664;23.594;2023-01-25T01:46:12;96528.31;;;3.29;68.68
23172;BME280;11754;42.664;23.594;2023-01-25T01:48:40;96529.03;;;3.31;68.42
23172;BME280;11754;42.664;23.594;2023-01-25T01:53:47;96525.72;;;3.15;68.04
23172;BME280;11754;42.664;23.594;2023-01-25T01:56:18;96523.50;;;3.08;68.30
23172;BME280;11754;42.664;23.594;2023-01-25T01:58:46;96517.34;;;3.09;68.90
23172;BME280;11754;42.664;23.594;2023-01-25T02:01:13;96524.69;;;3.17;69.11
23172;BME280;11754;42.664;23.594;2023-01-25T02:03:39;96515.94;;;3.18;69.15
23172;BME280;11754;42.664;23.594;2023-01-25T02:06:29;96516.78;;;3.19;69.18
23172;BME280;11754;42.664;23.594;2023-01-25T02:08:57;96514.91;;;3.21;68.89
23172;BME280;11754;42.664;23.594;2023-01-25T02:11:23;96510.81;;;3.17;69.13
23172;BME280;11754;42.664;23.594;2023-01-25T02:13:52;96511.09;;;3.12;68.84
23172;BME280;11754;42.664;23.594;2023-01-25T02:16:22;96515.78;;;3.07;69.02
23172;BME280;11754;42.664;23.594;2023-01-25T02:18:48;96516.63;;;3.07;68.94
23172;BME280;11754;42.664;23.594;2023-01-25T02:21:14;96527.56;;;3.12;69.07
23172;BME280;11754;42.664;23.594;2023-01-25T02:26:18;96525.31;;;3.21;68.84
23172;BME280;11754;42.664;23.594;2023-01-25T02:28:55;96532.88;;;3.25;68.78
23172;BME280;11754;42.664;23.594;2023-01-25T02:31:23;96528.31;;;3.29;68.34
23172;BME280;11754;42.664;23.594;2023-01-25T02:33:49;96530.63;;;3.33;68.00
23172;BME280;11754;42.664;23.594;2023-01-25T02:38:53;96526.44;;;3.31;67.33
23172;BME280;11754;42.664;23.594;2023-01-25T02:41:41;96514.16;;;3.33;67.06
23172;BME280;11754;42.664;23.594;2023-01-25T02:44:14;96514.69;;;3.38;67.13
23172;BME280;11754;42.664;23.594;2023-01-25T02:46:41;96507.28;;;3.32;68.05
23172;BME280;11754;42.664;23.594;2023-01-25T02:49:08;96511.44;;;3.34;67.73
23172;BME280;11754;42.664;23.594;2023-01-25T02:51:37;96509.13;;;3.30;67.60
23172;BME280;11754;42.664;23.594;2023-01-25T02:54:04;96517.13;;;3.27;67.38
23172;BME280;11754;42.664;23.594;2023-01-25T02:56:30;96516.41;;;3.25;67.15
23172;BME280;11754;42.664;23.594;2023-01-25T02:58:56;96522.28;;;3.28;67.44
23172;BME280;11754;42.664;23.594;2023-01-25T03:01:22;96509.50;;;3.24;67.27
23172;BME280;11754;42.664;23.594;2023-01-25T03:03:47;96514.53;;;3.27;67.73
23172;BME280;11754;42.664;23.594;2023-01-25T03:06:13;96496.09;;;3.16;66.86
23172;BME280;11754;42.664;23.594;2023-01-25T03:08:39;96502.63;;;3.23;67.12
23172;BME280;11754;42.664;23.594;2023-01-25T03:11:05;96502.81;;;3.20;67.17
23172;BME280;11754;42.664;23.594;2023-01-25T03:13:32;96506.72;;;3.12;66.31
23172;BME280;11754;42.664;23.594;2023-01-25T03:16:10;96506.53;;;3.16;66.68
23172;BME280;11754;42.664;23.594;2023-01-25T03:18:36;96499.28;;;3.06;66.43
23172;BME280;11754;42.664;23.594;2023-01-25T03:21:06;96507.09;;;3.06;66.77
23172;BME280;11754;42.664;23.594;2023-01-25T03:23:32;96509.69;;;3.06;66.87
23172;BME280;11754;42.664;23.594;2023-01-25T03:26:09;96513.59;;;3.13;67.16
23172;BME280;11754;42.664;23.594;2023-01-25T03:28:35;96508.38;;;3.13;66.89
23172;BME280;11754;42.664;23.594;2023-01-25T03:31:01;96511.38;;;3.22;66.37
23172;BME280;11754;42.664;23.594;2023-01-25T03:33:27;96514.19;;;3.19;66.14
23172;BME280;11754;42.664;23.594;2023-01-25T03:35:53;96520.41;;;3.16;66.10
23172;BME280;11754;42.664;23.594;2023-01-25T03:38:19;96519.03;;;3.10;66.10
23172;BME280;11754;42.664;23.594;2023-01-25T03:40:45;96518.63;;;3.17;66.16
23172;BME280;11754;42.664;23.594;2023-01-25T03:43:11;96520.34;;;3.18;65.68
23172;BME280;11754;42.664;23.594;2023-01-25T03:45:36;96519.75;;;3.12;65.75
23172;BME280;11754;42.664;23.594;2023-01-25T03:48:02;96516.63;;;3.07;65.60
23172;BME280;11754;42.664;23.594;2023-01-25T03:50:28;96523.69;;;3.05;65.82
23172;BME280;11754;42.664;23.594;2023-01-25T03:52:56;96512.31;;;3.06;66.00
23172;BME280;11754;42.664;23.594;2023-01-25T03:55:27;96515.97;;;3.04;65.54
23172;BME280;11754;42.664;23.594;2023-01-25T03:57:53;96510.47;;;3.08;65.77
23172;BME280;11754;42.664;23.594;2023-01-25T04:00:18;96511.75;;;3.16;65.81
23172;BME280;11754;42.664;23.594;2023-01-25T04:02:46;96511.84;;;3.14;65.94
23172;BME280;11754;42.664;23.594;2023-01-25T04:05:12;96513.41;;;3.17;65.59
23172;BME280;11754;42.664;23.594;2023-01-25T04:07:38;96506.34;;;3.19;65.92
23172;BME280;11754;42.664;23.594;2023-01-25T04:10:04;96504.69;;;3.18;65.46
23172;BME280;11754;42.664;23.594;2023-01-25T04:12:30;96492.75;;;3.13;65.57
23172;BME280;11754;42.664;23.594;2023-01-25T04:14:56;96504.47;;;3.21;65.24
23172;BME280;11754;42.664;23.594;2023-01-25T04:17:21;96503.16;;;3.28;65.61
23172;BME280;11754;42.664;23.594;2023-01-25T04:19:47;96501.66;;;3.24;64.95
23172;BME280;11754;42.664;23.594;2023-01-25T04:22:12;96507.47;;;3.15;64.86
23172;BME280;11754;42.664;23.594;2023-01-25T04:24:38;96503.56;;;3.22;65.28
23172;BME280;11754;42.664;23.594;2023-01-25T04:27:04;96490.72;;;3.19;64.92
23172;BME280;11754;42.664;23.594;2023-01-25T04:29:29;96504.00;;;3.28;64.26
23172;BME280;11754;42.664;23.594;2023-01-25T04:31:55;96497.94;;;3.28;64.36
23172;BME280;11754;42.664;23.594;2023-01-25T04:34:20;96496.66;;;3.21;64.63
23172;BME280;11754;42.664;23.594;2023-01-25T04:36:46;96494.97;;;3.20;64.68
23172;BME280;11754;42.664;23.594;2023-01-25T04:39:11;96497.59;;;3.20;64.46
23172;BME280;11754;42.664;23.594;2023-01-25T04:41:37;96496.88;;;3.18;64.36
23172;BME280;11754;42.664;23.594;2023-01-25T04:44:02;96514.06;;;3.20;65.01
23172;BME280;11754;42.664;23.594;2023-01-25T04:46:27;96513.03;;;3.23;64.66
23172;BME280;11754;42.664;23.594;2023-01-25T04:48:53;96513.69;;;3.26;64.64
23172;BME280;11754;42.664;23.594;2023-01-25T04:51:19;96507.66;;;3.26;64.50
23172;BME280;11754;42.664;23.594;2023-01-25T04:53:44;96518.25;;;3.23;64.85
23172;BME280;11754;42.664;23.594;2023-01-25T04:56:10;96508.59;;;3.25;64.65
23172;BME280;11754;42.664;23.594;2023-01-25T04:58:36;96510.97;;;3.28;64.41
23172;BME280;11754;42.664;23.594;2023-01-25T05:01:02;96502.69;;;3.35;64.29
23172;BME280;11754;42.664;23.594;2023-01-25T05:03:28;96514.69;;;3.38;64.27
23172;BME280;11754;42.664;23.594;2023-01-25T05:05:54;96499.78;;;3.40;64.11
23172;BME280;11754;42.664;23.594;2023-01-25T05:08:19;96510.22;;;3.40;63.99
23172;BME280;11754;42.664;23.594;2023-01-25T05:10:45;96501.41;;;3.28;65.04
23172;BME280;11754;42.664;23.594;2023-01-25T05:13:10;96504.09;;;3.27;65.36
23172;BME280;11754;42.664;23.594;2023-01-25T05:15:35;96516.97;;;3.16;65.76
23172;BME280;11754;42.664;23.594;2023-01-25T05:18:01;96505.78;;;3.13;66.52
23172;BME280;11754;42.664;23.594;2023-01-25T05:20:27;96511.84;;;3.28;66.65
23172;BME280;11754;42.664;23.594;2023-01-25T05:22:52;96510.06;;;3.29;67.05
23172;BME280;11754;42.664;23.594;2023-01-25T05:25:18;96505.22;;;3.23;67.23
23172;BME280;11754;42.664;23.594;2023-01-25T05:28:06;96508.38;;;3.13;67.99
23172;BME280;11754;42.664;23.594;2023-01-25T05:30:32;96512.97;;;3.10;68.30
23172;BME280;11754;42.664;23.594;2023-01-25T05:32:58;96514.25;;;3.17;68.23
23172;BME280;11754;42.664;23.594;2023-01-25T05:35:23;96512.69;;;3.15;68.28
23172;BME280;11754;42.664;23.594;2023-01-25T05:37:49;96513.81;;;3.10;67.95
23172;BME280;11754;42.664;23.594;2023-01-25T05:40:14;96512.53;;;3.03;68.36
23172;BME280;11754;42.664;23.594;2023-01-25T05:42:40;96514.19;;;3.04;68.55
23172;BME280;11754;42.664;23.594;2023-01-25T05:45:07;96519.41;;;3.04;68.89
23172;BME280;11754;42.664;23.594;2023-01-25T05:47:33;96519.59;;;3.01;68.43
23172;BME280;11754;42.664;23.594;2023-01-25T05:49:58;96519.47;;;3.03;68.33
23172;BME280;11754;42.664;23.594;2023-01-25T05:52:23;96526.09;;;3.08;68.45
23172;BME280;11754;42.664;23.594;2023-01-25T05:54:49;96521.63;;;3.10;67.66
23172;BME280;11754;42.664;23.594;2023-01-25T05:57:15;96516.03;;;3.02;67.37
23172;BME280;11754;42.664;23.594;2023-01-25T05:59:40;96525.44;;;3.05;67.57
23172;BME280;11754;42.664;23.594;2023-01-25T06:02:06;96521.25;;;3.02;67.36
23172;BME280;11754;42.664;23.594;2023-01-25T06:04:31;96522.09;;;3.03;67.26
23172;BME280;11754;42.664;23.594;2023-01-25T06:06:57;96517.53;;;3.06;67.78
23172;BME280;11754;42.664;23.594;2023-01-25T06:09:22;96518.81;;;3.13;67.71
23172;BME280;11754;42.664;23.594;2023-01-25T06:11:48;96522.56;;;3.09;67.32
23172;BME280;11754;42.664;23.594;2023-01-25T06:14:14;96524.25;;;3.10;67.51
23172;BME280;11754;42.664;23.594;2023-01-25T06:16:39;96522.00;;;3.04;67.64
23172;BME280;11754;42.664;23.594;2023-01-25T06:19:06;96526.28;;;3.05;67.48
23172;BME280;11754;42.664;23.594;2023-01-25T06:21:32;96522.84;;;3.05;67.39
23172;BME280;11754;42.664;23.594;2023-01-25T06:23:59;96526.66;;;2.99;67.63
23172;BME280;11754;42.664;23.594;2023-01-25T06:26:24;96524.03;;;2.99;67.99
23172;BME280;11754;42.664;23.594;2023-01-25T06:28:50;96518.84;;;2.99;68.20
23172;BME280;11754;42.664;23.594;2023-01-25T06:31:16;96520.91;;;2.94;68.15
23172;BME280;11754;42.664;23.594;2023-01-25T06:33:46;96520.41;;;3.02;68.49
23172;BME280;11754;42.664;23.594;2023-01-25T06:36:15;96522.28;;;3.14;68.49
23172;BME280;11754;42.664;23.594;2023-01-25T06:38:41;96525.53;;;3.18;67.94
23172;BME280;11754;42.664;23.594;2023-01-25T06:41:09;96525.78;;;3.27;68.05
23172;BME280;11754;42.664;23.594;2023-01-25T06:43:35;96526.44;;;3.31;67.34
23172;BME280;11754;42.664;23.594;2023-01-25T06:46:08;96534.44;;;3.28;67.55
23172;BME280;11754;42.664;23.594;2023-01-25T06:48:34;96523.97;;;3.42;67.02
23172;BME280;11754;42.664;23.594;2023-01-25T06:51:02;96528.09;;;3.46;67.39
23172;BME280;11754;42.664;23.594;2023-01-25T06:53:30;96522.41;;;3.54;66.96
23172;BME280;11754;42.664;23.594;2023-01-25T06:56:07;96517.84;;;3.70;66.27
23172;BME280;11754;42.664;23.594;2023-01-25T06:58:33;96521.22;;;3.72;65.91
23172;BME280;11754;42.664;23.594;2023-01-25T07:01:00;96521.66;;;3.79;65.28
23172;BME280;11754;42.664;23.594;2023-01-25T07:03:27;96522.56;;;3.78;65.17
23172;BME280;11754;42.664;23.594;2023-01-25T07:05:59;96520.78;;;3.78;65.30
23172;BME280;11754;42.664;23.594;2023-01-25T07:08:25;96528.34;;;3.83;64.56
23172;BME280;11754;42.664;23.594;2023-01-25T07:11:01;96521.06;;;3.88;64.97
23172;BME280;11754;42.664;23.594;2023-01-25T07:13:27;96529.44;;;3.93;64.22
23172;BME280;11754;42.664;23.594;2023-01-25T07:15:59;96529.22;;;3.96;64.78
23172;BME280;11754;42.664;23.594;2023-01-25T07:18:26;96516.38;;;3.93;64.99
23172;BME280;11754;42.664;23.594;2023-01-25T07:20:52;96515.63;;;3.91;63.88
23172;BME280;11754;42.664;23.594;2023-01-25T07:23:18;96515.69;;;4.04;64.44
23172;BME280;11754;42.664;23.594;2023-01-25T07:25:48;96519.97;;;4.05;63.99
23172;BME280;11754;42.664;23.594;2023-01-25T07:28:15;96536.06;;;4.24;63.17
23172;BME280;11754;42.664;23.594;2023-01-25T07:30:41;96526.81;;;4.33;63.70
23172;BME280;11754;42.664;23.594;2023-01-25T07:33:08;96526.72;;;4.47;63.93
23172;BME280;11754;42.664;23.594;2023-01-25T07:35:33;96526.22;;;4.55;63.11
23172;BME280;11754;42.664;23.594;2023-01-25T07:37:59;96524.22;;;4.58;62.78
23172;BME280;11754;42.664;23.594;2023-01-25T07:40:24;96537.69;;;4.52;62.71
23172;BME280;11754;42.664;23.594;2023-01-25T07:42:50;96535.81;;;4.42;62.41
23172;BME280;11754;42.664;23.594;2023-01-25T07:45:16;96533.06;;;4.43;62.85
23172;BME280;11754;42.664;23.594;2023-01-25T07:47:41;96548.16;;;4.52;62.68
23172;BME280;11754;42.664;23.594;2023-01-25T07:50:07;96537.50;;;4.55;63.65
23172;BME280;11754;42.664;23.594;2023-01-25T07:52:33;96527.88;;;4.69;62.78
23172;BME280;11754;42.664;23.594;2023-01-25T07:54:58;96534.34;;;4.76;62.72
23172;BME280;11754;42.664;23.594;2023-01-25T07:57:24;96536.34;;;4.85;61.65
23172;BME280;11754;42.664;23.594;2023-01-25T07:59:49;96545.66;;;4.76;61.66
23172;BME280;11754;42.664;23.594;2023-01-25T08:02:15;96538.13;;;4.72;61.36
23172;BME280;11754;42.664;23.594;2023-01-25T08:04:40;96531.34;;;4.69;60.88
23172;BME280;11754;42.664;23.594;2023-01-25T08:15:56;96551.72;;;5.02;61.17
23172;BME280;11754;42.664;23.594;2023-01-25T08:18:22;96539.81;;;4.98;60.91
23172;BME280;11754;42.664;23.594;2023-01-25T08:20:47;96549.59;;;5.07;60.30
23172;BME280;11754;42.664;23.594;2023-01-25T08:23:13;96532.13;;;5.21;60.52
23172;BME280;11754;42.664;23.594;2023-01-25T08:25:38;96532.19;;;5.45;60.48
23172;BME280;11754;42.664;23.594;2023-01-25T08:28:04;96531.50;;;5.67;58.41
23172;BME280;11754;42.664;23.594;2023-01-25T08:30:30;96514.78;;;5.57;59.15
23172;BME280;11754;42.664;23.594;2023-01-25T08:32:56;96528.31;;;5.74;58.43
23172;BME280;11754;42.664;23.594;2023-01-25T08:35:21;96527.19;;;5.90;58.76
23172;BME280;11754;42.664;23.594;2023-01-25T08:37:46;96521.03;;;6.15;57.55
23172;BME280;11754;42.664;23.594;2023-01-25T08:40:12;96527.69;;;6.43;56.60
23172;BME280;11754;42.664;23.594;2023-01-25T08:42:38;96537.47;;;6.63;56.14
23172;BME280;11754;42.664;23.594;2023-01-25T08:45:04;96524.97;;;6.56;55.98
23172;BME280;11754;42.664;23.594;2023-01-25T08:47:29;96531.69;;;6.82;55.78
23172;BME280;11754;42.664;23.594;2023-01-25T08:49:55;96530.00;;;6.81;54.94
23172;BME280;11754;42.664;23.594;2023-01-25T08:52:20;96520.75;;;7.11;54.64
23172;BME280;11754;42.664;23.594;2023-01-25T08:54:46;96530.03;;;7.49;53.95
23172;BME280;11754;42.664;23.594;2023-01-25T08:57:12;96517.28;;;7.21;53.42
23172;BME280;11754;42.664;23.594;2023-01-25T08:59:37;96518.47;;;7.06;54.18
23172;BME280;11754;42.664;23.594;2023-01-25T09:02:03;96515.97;;;7.27;53.70
23172;BME280;11754;42.664;23.594;2023-01-25T09:04:28;96522.28;;;7.02;53.96
23172;BME280;11754;42.664;23.594;2023-01-25T09:06:54;96521.22;;;6.82;53.94
23172;BME280;11754;42.664;23.594;2023-01-25T09:09:20;96512.59;;;6.58;54.98
23172;BME280;11754;42.664;23.594;2023-01-25T09:11:47;96511.19;;;6.76;55.06
23172;BME280;11754;42.664;23.594;2023-01-25T09:14:12;96509.97;;;6.69;54.61
23172;BME280;11754;42.664;23.594;2023-01-25T09:16:37;96504.00;;;6.56;54.75
23172;BME280;11754;42.664;23.594;2023-01-25T09:19:04;96508.53;;;6.65;54.58
23172;BME280;11754;42.664;23.594;2023-01-25T09:21:30;96518.53;;;6.60;54.60
23172;BME280;11754;42.664;23.594;2023-01-25T09:23:56;96506.81;;;6.41;54.80
23172;BME280;11754;42.664;23.594;2023-01-25T09:26:22;96495.28;;;6.44;55.46
23172;BME280;11754;42.664;23.594;2023-01-25T09:28:51;96499.88;;;6.29;55.90
23172;BME280;11754;42.664;23.594;2023-01-25T09:31:18;96495.69;;;6.26;55.80
23172;BME280;11754;42.664;23.594;2023-01-25T09:33:44;96496.19;;;6.20;56.03
23172;BME280;11754;42.664;23.594;2023-01-25T09:36:10;96497.28;;;6.05;56.28
23172;BME280;11754;42.664;23.594;2023-01-25T09:38:36;96489.19;;;5.97;56.53
23172;BME280;11754;42.664;23.594;2023-01-25T09:49:28;96464.66;;;5.74;57.85
23172;BME280;11754;42.664;23.594;2023-01-25T09:54:54;96456.38;;;5.91;57.15
23172;BME280;11754;42.664;23.594;2023-01-25T09:57:25;96460.38;;;5.97;57.60
23172;BME280;11754;42.664;23.594;2023-01-25T09:59:52;96454.06;;;5.99;56.73
23172;BME280;11754;42.664;23.594;2023-01-25T10:04:51;96445.50;;;6.09;56.26
23172;BME280;11754;42.664;23.594;2023-01-25T10:10:10;96438.19;;;6.25;55.98
23172;BME280;11754;42.664;23.594;2023-01-25T10:12:38;96434.38;;;6.29;55.90
23172;BME280;11754;42.664;23.594;2023-01-25T10:15:21;96436.22;;;6.05;56.79
23172;BME280;11754;42.664;23.594;2023-01-25T10:17:58;96432.66;;;6.06;56.51
23172;BME280;11754;42.664;23.594;2023-01-25T10:20:37;96421.84;;;5.86;56.79
23172;BME280;11754;42.664;23.594;2023-01-25T10:26:31;96418.25;;;6.00;57.03
23172;BME280;11754;42.664;23.594;2023-01-25T10:31:43;96413.59;;;6.04;56.78
23172;BME280;11754;42.664;23.594;2023-01-25T10:34:32;96404.34;;;6.11;56.97
23172;BME280;11754;42.664;23.594;2023-01-25T10:37:10;96405.91;;;6.24;56.78
23172;BME280;11754;42.664;23.594;2023-01-25T10:39:41;96396.28;;;6.36;55.30
23172;BME280;11754;42.664;23.594;2023-01-25T10:42:11;96388.88;;;6.30;55.11
23172;BME280;11754;42.664;23.594;2023-01-25T10:44:39;96385.81;;;6.36;55.30
23172;BME280;11754;42.664;23.594;2023-01-25T10:47:13;96377.72;;;6.50;55.11
23172;BME280;11754;42.664;23.594;2023-01-25T10:49:51;96380.56;;;6.59;55.20
23172;BME280;11754;42.664;23.594;2023-01-25T10:52:31;96382.25;;;6.71;54.42
23172;BME280;11754;42.664;23.594;2023-01-25T11:05:58;96367.09;;;6.18;56.53
23172;BME280;11754;42.664;23.594;2023-01-25T11:08:35;96369.00;;;6.28;56.47
23172;BME280;11754;42.664;23.594;2023-01-25T11:11:16;96366.72;;;6.12;55.83
23172;BME280;11754;42.664;23.594;2023-01-25T11:13:46;96366.63;;;6.13;55.67
23172;BME280;11754;42.664;23.594;2023-01-25T11:18:55;96357.34;;;6.20;55.73
23172;BME280;11754;42.664;23.594;2023-01-25T11:21:23;96347.19;;;6.27;55.74
23172;BME280;11754;42.664;23.594;2023-01-25T11:24:01;96352.69;;;6.24;55.49
23172;BME280;11754;42.664;23.594;2023-01-25T11:26:28;96356.25;;;6.23;55.69
23172;BME280;11754;42.664;23.594;2023-01-25T11:31:38;96347.69;;;6.21;55.65
23172;BME280;11754;42.664;23.594;2023-01-25T11:34:12;96347.69;;;6.21;55.40
23172;BME280;11754;42.664;23.594;2023-01-25T11:36:53;96344.09;;;6.11;56.32
23172;BME280;11754;42.664;23.594;2023-01-25T11:39:39;96345.28;;;6.07;56.21
23172;BME280;11754;42.664;23.594;2023-01-25T11:47:39;96335.44;;;5.86;57.19
23172;BME280;11754;42.664;23.594;2023-01-25T11:50:17;96317.84;;;5.88;58.03
23172;BME280;11754;42.664;23.594;2023-01-25T11:59:16;96315.97;;;6.01;57.51
23172;BME280;11754;42.664;23.594;2023-01-25T12:07:18;96300.03;;;6.05;56.58
23172;BME280;11754;42.664;23.594;2023-01-25T12:12:40;96304.22;;;6.07;57.08
23172;BME280;11754;42.664;23.594;2023-01-25T12:17:59;96306.25;;;6.15;57.21
23172;BME280;11754;42.664;23.594;2023-01-25T12:33:40;96287.84;;;5.81;57.98
23172;BME280;11754;42.664;23.594;2023-01-25T12:49:13;96272.00;;;5.71;57.86
23172;BME280;11754;42.664;23.594;2023-01-25T12:51:41;96267.16;;;5.78;58.19
23172;BME280;11754;42.664;23.594;2023-01-25T12:54:37;96264.50;;;5.67;58.20
23172;BME280;11754;42.664;23.594;2023-01-25T12:57:16;96273.03;;;5.58;58.57
23172;BME280;11754;42.664;23.594;2023-01-25T13:05:24;96268.53;;;5.60;58.25
23172;BME280;11754;42.664;23.594;2023-01-25T13:10:51;96252.47;;;5.64;58.28
23172;BME280;11754;42.664;23.594;2023-01-25T13:15:47;96253.66;;;5.60;58.51
23172;BME280;11754;42.664;23.594;2023-01-25T13:18:36;96239.84;;;5.47;58.73
23172;BME280;11754;42.664;23.594;2023-01-25T13:21:04;96247.31;;;5.40;59.22
23172;BME280;11754;42.664;23.594;2023-01-25T13:23:40;96231.63;;;5.40;59.30
23172;BME280;11754;42.664;23.594;2023-01-25T13:26:36;96246.25;;;5.43;59.40
23172;BME280;11754;42.664;23.594;2023-01-25T13:29:01;96244.22;;;5.35;59.44
23172;BME280;11754;42.664;23.594;2023-01-25T13:36:55;96238.75;;;5.27;59.63
23172;BME280;11754;42.664;23.594;2023-01-25T13:42:03;96237.06;;;5.37;59.00
23172;BME280;11754;42.664;23.594;2023-01-25T13:44:32;96247.88;;;5.21;59.90
23172;BME280;11754;42.664;23.594;2023-01-25T13:47:01;96253.94;;;5.22;60.06
23172;BME280;11754;42.664;23.594;2023-01-25T13:49:38;96245.72;;;5.26;59.63
23172;BME280;11754;42.664;23.594;2023-01-25T13:52:05;96264.16;;;5.25;59.65
23172;BME280;11754;42.664;23.594;2023-01-25T13:54:31;96263.94;;;5.28;60.29
23172;BME280;11754;42.664;23.594;2023-01-25T13:57:11;96254.63;;;5.13;59.69
23172;BME280;11754;42.664;23.594;2023-01-25T13:59:37;96254.72;;;5.11;60.17
23172;BME280;11754;42.664;23.594;2023-01-25T14:02:05;96263.69;;;4.96;59.94
23172;BME280;11754;42.664;23.594;2023-01-25T14:04:36;96238.66;;;4.69;61.01
23172;BME280;11754;42.664;23.594;2023-01-25T14:07:02;96260.59;;;4.67;60.55
23172;BME280;11754;42.664;23.594;2023-01-25T14:09:34;96255.53;;;4.52;61.55
23172;BME280;11754;42.664;23.594;2023-01-25T14:12:01;96255.97;;;4.46;62.01
23172;BME280;11754;42.664;23.594;2023-01-25T14:14:29;96257.03;;;4.44;62.44
23172;BME280;11754;42.664;23.594;2023-01-25T14:19:37;96252.44;;;4.34;62.31
23172;BME280;11754;42.664;23.594;2023-01-25T14:22:27;96260.41;;;4.20;61.98
23172;BME280;11754;42.664;23.594;2023-01-25T14:27:33;96252.31;;;4.12;62.55
23172;BME280;11754;42.664;23.594;2023-01-25T14:29:59;96259.19;;;4.13;61.83
23172;BME280;11754;42.664;23.594;2023-01-25T14:32:26;96256.44;;;4.15;61.23
23172;BME280;11754;42.664;23.594;2023-01-25T14:34:52;96245.78;;;4.18;61.37
23172;BME280;11754;42.664;23.594;2023-01-25T14:37:19;96251.00;;;4.18;61.45
23172;BME280;11754;42.664;23.594;2023-01-25T14:39:46;96249.16;;;4.20;61.37
23172;BME280;11754;42.664;23.594;2023-01-25T14:42:16;96239.13;;;4.14;62.26
23172;BME280;11754;42.664;23.594;2023-01-25T14:44:43;96251.13;;;4.16;62.40
23172;BME280;11754;42.664;23.594;2023-01-25T14:49:52;96235.19;;;3.95;61.80
23172;BME280;11754;42.664;23.594;2023-01-25T14:52:19;96235.53;;;3.91;62.13
23172;BME280;11754;42.664;23.594;2023-01-25T14:54:53;96236.97;;;3.82;62.88
23172;BME280;11754;42.664;23.594;2023-01-25T14:57:36;96235.22;;;3.70;62.11
23172;BME280;11754;42.664;23.594;2023-01-25T15:00:23;96249.31;;;3.54;62.58
23172;BME280;11754;42.664;23.594;2023-01-25T15:02:51;96253.09;;;3.50;62.71
23172;BME280;11754;42.664;23.594;2023-01-25T15:07:50;96256.53;;;3.51;63.07
23172;BME280;11754;42.664;23.594;2023-01-25T15:15:32;96267.47;;;3.43;62.99
23172;BME280;11754;42.664;23.594;2023-01-25T15:17:58;96272.34;;;3.35;63.58
23172;BME280;11754;42.664;23.594;2023-01-25T15:20:27;96273.69;;;3.28;63.93
23172;BME280;11754;42.664;23.594;2023-01-25T15:22:54;96268.72;;;3.25;64.00
23172;BME280;11754;42.664;23.594;2023-01-25T15:25:21;96274.75;;;3.25;64.10